sensor_id;sensor_type;location;lat;lon;timestamp;pressure;altitude;pressure_sealevel;temperature;humidity
74230;BME280;62589;12.568;99.958;2022-09-20T00:01:11;100648.88;;;33.32;47.54
74230;BME280;62589;12.568;99.958;2022-09-20T00:03:40;100652.84;;;33.27;47.28
74230;BME280;62589;12.568;99.958;2022-09-20T00:06:14;100658.81;;;33.26;47.48
74230;BME280;62589;12.568;99.958;2022-09-20T00:08:41;100646.47;;;33.27;47.66
74230;BME280;62589;12.568;99.958;2022-09-20T00:11:10;100642.09;;;33.26;47.13
74230;BME280;62589;12.568;99.958;2022-09-20T00:13:41;100643.28;;;33.21;46.79
74230;BME280;62589;12.568;99.958;2022-09-20T00:16:14;100647.25;;;33.20;47.03
74230;BME280;62589;12.568;99.958;2022-09-20T00:18:41;100646.84;;;33.22;47.39
74230;BME280;62589;12.568;99.958;2022-09-20T00:21:21;100655.19;;;33.18;47.27
74230;BME280;62589;12.568;99.958;2022-09-20T00:23:48;100656.38;;;33.13;47.08
74230;BME280;62589;12.568;99.958;2022-09-20T00:26:14;100659.19;;;33.21;47.21
74230;BME280;62589;12.568;99.958;2022-09-20T00:28:41;100667.94;;;33.23;47.05
74230;BME280;62589;12.568;99.958;2022-09-20T00:31:10;100672.34;;;33.31;47.25
74230;BME280;62589;12.568;99.958;2022-09-20T00:33:36;100674.75;;;33.36;47.19
74230;BME280;62589;12.568;99.958;2022-09-20T00:36:15;100670.41;;;33.42;47.05
74230;BME280;62589;12.568;99.958;2022-09-20T00:38:41;100681.13;;;33.47;47.20
74230;BME280;62589;12.568;99.958;2022-09-20T00:41:08;100680.34;;;33.50;47.13
74230;BME280;62589;12.568;99.958;2022-09-20T00:43:43;100695.06;;;33.54;46.63
74230;BME280;62589;12.568;99.958;2022-09-20T00:46:37;100702.66;;;33.64;46.58
74230;BME280;62589;12.568;99.958;2022-09-20T00:49:15;100700.66;;;33.65;46.69
74230;BME280;62589;12.568;99.958;2022-09-20T00:51:46;100703.03;;;33.70;46.75
74230;BME280;62589;12.568;99.958;2022-09-20T00:54:16;100713.38;;;33.73;47.06
74230;BME280;62589;12.568;99.958;2022-09-20T00:56:43;100716.97;;;33.73;47.54
74230;BME280;62589;12.568;99.958;2022-09-20T00:59:25;100716.97;;;33.77;47.14
74230;BME280;62589;12.568;99.958;2022-09-20T01:01:57;100729.75;;;33.82;47.31
74230;BME280;62589;12.568;99.958;2022-09-20T01:04:26;100736.91;;;33.86;48.28
74230;BME280;62589;12.568;99.958;2022-09-20T01:06:55;100742.88;;;33.92;48.86
74230;BME280;62589;12.568;99.958;2022-09-20T01:09:23;100746.47;;;33.96;49.74
74230;BME280;62589;12.568;99.958;2022-09-20T01:11:49;100748.84;;;33.97;48.99
74230;BME280;62589;12.568;99.958;2022-09-20T01:14:17;100763.19;;;34.03;48.70
74230;BME280;62589;12.568;99.958;2022-09-20T01:16:44;100758.81;;;34.05;49.32
74230;BME280;62589;12.568;99.958;2022-09-20T01:19:27;100770.34;;;34.11;50.23
74230;BME280;62589;12.568;99.958;2022-09-20T01:21:57;100782.31;;;34.15;50.23
74230;BME280;62589;12.568;99.958;2022-09-20T01:27:47;100783.56;;;34.28;50.74
74230;BME280;62589;12.568;99.958;2022-09-20T01:30:20;100783.91;;;34.30;50.64
74230;BME280;62589;12.568;99.958;2022-09-20T01:35:38;100793.50;;;34.40;50.96
74230;BME280;62589;12.568;99.958;2022-09-20T01:43:54;100785.91;;;34.58;50.29
74230;BME280;62589;12.568;99.958;2022-09-20T01:46:41;100778.34;;;34.69;49.99
74230;BME280;62589;12.568;99.958;2022-09-20T01:52:31;100779.09;;;34.77;49.53
74230;BME280;62589;12.568;99.958;2022-09-20T02:04:03;100786.25;;;34.96;48.56
74230;BME280;62589;12.568;99.958;2022-09-20T02:07:06;100792.63;;;35.03;48.20
74230;BME280;62589;12.568;99.958;2022-09-20T02:10:22;100793.81;;;35.09;48.24
74230;BME280;62589;12.568;99.958;2022-09-20T02:12:57;100801.38;;;35.12;47.96
74230;BME280;62589;12.568;99.958;2022-09-20T02:27:46;100788.50;;;35.47;47.52
74230;BME280;62589;12.568;99.958;2022-09-20T02:36:51;100788.03;;;35.59;46.66
74230;BME280;62589;12.568;99.958;2022-09-20T02:39:33;100784.03;;;35.60;46.58
74230;BME280;62589;12.568;99.958;2022-09-20T02:47:49;100780.41;;;35.67;43.72
74230;BME280;62589;12.568;99.958;2022-09-20T03:02:19;100789.06;;;35.94;43.93
74230;BME280;62589;12.568;99.958;2022-09-20T03:05:06;100782.28;;;35.95;43.52
74230;BME280;62589;12.568;99.958;2022-09-20T03:07:57;100775.81;;;36.01;43.45
74230;BME280;62589;12.568;99.958;2022-09-20T03:10:58;100782.97;;;36.09;42.90
74230;BME280;62589;12.568;99.958;2022-09-20T03:13:45;100777.78;;;36.08;42.94
74230;BME280;62589;12.568;99.958;2022-09-20T03:19:22;100770.56;;;36.14;43.36
74230;BME280;62589;12.568;99.958;2022-09-20T03:22:25;100776.88;;;36.22;43.43
74230;BME280;62589;12.568;99.958;2022-09-20T03:42:23;100759.97;;;36.39;42.78
74230;BME280;62589;12.568;99.958;2022-09-20T03:48:04;100763.91;;;36.45;42.11
74230;BME280;62589;12.568;99.958;2022-09-20T03:59:35;100744.50;;;36.69;42.14
74230;BME280;62589;12.568;99.958;2022-09-20T04:02:23;100742.88;;;36.75;42.35
74230;BME280;62589;12.568;99.958;2022-09-20T04:04:58;100738.06;;;36.75;42.49
74230;BME280;62589;12.568;99.958;2022-09-20T04:07:58;100745.13;;;36.87;42.34
74230;BME280;62589;12.568;99.958;2022-09-20T04:13:49;100732.28;;;36.93;41.61
74230;BME280;62589;12.568;99.958;2022-09-20T04:16:39;100732.63;;;36.99;41.93
74230;BME280;62589;12.568;99.958;2022-09-20T04:19:29;100723.34;;;37.02;42.10
74230;BME280;62589;12.568;99.958;2022-09-20T04:22:01;100721.72;;;37.04;42.03
74230;BME280;62589;12.568;99.958;2022-09-20T04:24:47;100728.06;;;37.08;42.14
74230;BME280;62589;12.568;99.958;2022-09-20T04:27:43;100726.78;;;37.20;41.75
74230;BME280;62589;12.568;99.958;2022-09-20T04:30:21;100705.53;;;37.23;41.73
74230;BME280;62589;12.568;99.958;2022-09-20T04:33:00;100710.19;;;37.33;41.55
74230;BME280;62589;12.568;99.958;2022-09-20T04:38:33;100704.34;;;37.50;41.18
74230;BME280;62589;12.568;99.958;2022-09-20T04:44:22;100678.09;;;37.68;41.33
74230;BME280;62589;12.568;99.958;2022-09-20T04:55:48;100668.56;;;38.12;42.48
74230;BME280;62589;12.568;99.958;2022-09-20T05:10:47;100640.56;;;38.32;41.33
74230;BME280;62589;12.568;99.958;2022-09-20T05:19:30;100625.63;;;38.38;41.31
74230;BME280;62589;12.568;99.958;2022-09-20T05:22:13;100624.03;;;38.37;41.48
74230;BME280;62589;12.568;99.958;2022-09-20T05:28:05;100596.41;;;38.36;40.98
74230;BME280;62589;12.568;99.958;2022-09-20T05:30:42;100591.25;;;38.34;41.18
74230;BME280;62589;12.568;99.958;2022-09-20T05:36:28;100584.97;;;38.46;40.53
74230;BME280;62589;12.568;99.958;2022-09-20T05:42:13;100582.81;;;38.54;41.26
74230;BME280;62589;12.568;99.958;2022-09-20T05:47:55;100564.84;;;38.51;40.38
74230;BME280;62589;12.568;99.958;2022-09-20T05:50:46;100578.50;;;38.49;40.25
74230;BME280;62589;12.568;99.958;2022-09-20T05:59:43;100569.16;;;38.36;40.62
74230;BME280;62589;12.568;99.958;2022-09-20T06:02:23;100569.28;;;38.29;40.31
74230;BME280;62589;12.568;99.958;2022-09-20T06:11:01;100548.31;;;38.17;40.64
74230;BME280;62589;12.568;99.958;2022-09-20T06:13:48;100550.31;;;38.17;40.78
74230;BME280;62589;12.568;99.958;2022-09-20T06:16:52;100541.56;;;38.15;40.81
74230;BME280;62589;12.568;99.958;2022-09-20T06:22:37;100532.88;;;38.06;41.21
74230;BME280;62589;12.568;99.958;2022-09-20T06:25:23;100530.19;;;38.02;40.83
74230;BME280;62589;12.568;99.958;2022-09-20T06:28:18;100528.94;;;38.03;40.90
74230;BME280;62589;12.568;99.958;2022-09-20T06:30:50;100523.13;;;37.94;40.83
74230;BME280;62589;12.568;99.958;2022-09-20T06:33:20;100517.94;;;37.93;41.26
74230;BME280;62589;12.568;99.958;2022-09-20T06:35:59;100521.53;;;37.93;41.80
74230;BME280;62589;12.568;99.958;2022-09-20T06:39:14;100501.84;;;37.97;41.21
74230;BME280;62589;12.568;99.958;2022-09-20T06:41:53;100497.47;;;37.96;41.83
74230;BME280;62589;12.568;99.958;2022-09-20T06:44:20;100491.44;;;37.97;41.21
74230;BME280;62589;12.568;99.958;2022-09-20T06:46:47;100480.59;;;37.99;40.99
74230;BME280;62589;12.568;99.958;2022-09-20T06:49:13;100482.94;;;38.01;41.30
74230;BME280;62589;12.568;99.958;2022-09-20T06:51:39;100476.13;;;38.02;41.73
74230;BME280;62589;12.568;99.958;2022-09-20T06:54:11;100478.50;;;38.03;41.05
74230;BME280;62589;12.568;99.958;2022-09-20T06:56:39;100469.44;;;37.96;40.88
74230;BME280;62589;12.568;99.958;2022-09-20T06:59:05;100469.94;;;37.91;41.29
74230;BME280;62589;12.568;99.958;2022-09-20T07:01:41;100466.78;;;37.89;42.07
74230;BME280;62589;12.568;99.958;2022-09-20T07:04:08;100476.47;;;37.84;43.00
74230;BME280;62589;12.568;99.958;2022-09-20T07:06:35;100469.44;;;37.76;43.59
74230;BME280;62589;12.568;99.958;2022-09-20T07:09:01;100517.13;;;37.72;44.30
74230;BME280;62589;12.568;99.958;2022-09-20T07:11:28;100505.44;;;37.54;42.86
74230;BME280;62589;12.568;99.958;2022-09-20T07:13:55;100507.44;;;37.30;44.83
74230;BME280;62589;12.568;99.958;2022-09-20T07:16:24;100538.78;;;36.95;45.19
74230;BME280;62589;12.568;99.958;2022-09-20T07:18:51;100552.31;;;36.66;45.15
74230;BME280;62589;12.568;99.958;2022-09-20T07:21:19;100560.09;;;36.55;45.69
74230;BME280;62589;12.568;99.958;2022-09-20T07:23:46;100553.59;;;36.31;46.20
74230;BME280;62589;12.568;99.958;2022-09-20T07:26:22;100539.06;;;36.05;46.46
74230;BME280;62589;12.568;99.958;2022-09-20T07:28:49;100514.66;;;35.72;46.55
74230;BME280;62589;12.568;99.958;2022-09-20T07:31:20;100509.00;;;35.34;47.90
74230;BME280;62589;12.568;99.958;2022-09-20T07:33:47;100495.31;;;34.99;48.25
74230;BME280;62589;12.568;99.958;2022-09-20T07:36:14;100481.47;;;34.77;48.01
74230;BME280;62589;12.568;99.958;2022-09-20T07:38:41;100464.81;;;34.70;48.16
74230;BME280;62589;12.568;99.958;2022-09-20T07:41:09;100466.41;;;34.68;48.80
74230;BME280;62589;12.568;99.958;2022-09-20T07:43:35;100450.09;;;34.63;48.17
74230;BME280;62589;12.568;99.958;2022-09-20T07:46:02;100456.09;;;34.61;50.66
74230;BME280;62589;12.568;99.958;2022-09-20T07:48:30;100458.91;;;34.58;51.53
74230;BME280;62589;12.568;99.958;2022-09-20T07:51:01;100447.81;;;34.47;50.88
74230;BME280;62589;12.568;99.958;2022-09-20T07:53:28;100463.00;;;34.35;50.66
74230;BME280;62589;12.568;99.958;2022-09-20T07:55:59;100457.47;;;34.21;49.97
74230;BME280;62589;12.568;99.958;2022-09-20T07:58:27;100444.03;;;34.02;50.40
74230;BME280;62589;12.568;99.958;2022-09-20T08:00:56;100457.22;;;33.87;50.46
74230;BME280;62589;12.568;99.958;2022-09-20T08:03:23;100476.66;;;33.94;51.02
74230;BME280;62589;12.568;99.958;2022-09-20T08:05:50;100477.88;;;33.90;51.98
74230;BME280;62589;12.568;99.958;2022-09-20T08:08:18;100473.50;;;33.89;51.83
74230;BME280;62589;12.568;99.958;2022-09-20T08:10:45;100478.28;;;33.88;52.79
74230;BME280;62589;12.568;99.958;2022-09-20T08:13:12;100480.66;;;33.90;53.46
74230;BME280;62589;12.568;99.958;2022-09-20T08:15:39;100483.84;;;33.92;54.46
74230;BME280;62589;12.568;99.958;2022-09-20T08:18:07;100489.00;;;33.93;56.34
74230;BME280;62589;12.568;99.958;2022-09-20T08:20:39;100496.16;;;33.94;57.30
74230;BME280;62589;12.568;99.958;2022-09-20T08:23:06;100506.91;;;33.96;56.85
74230;BME280;62589;12.568;99.958;2022-09-20T08:25:34;100511.28;;;33.97;57.38
74230;BME280;62589;12.568;99.958;2022-09-20T08:28:01;100523.63;;;33.96;58.11
74230;BME280;62589;12.568;99.958;2022-09-20T08:30:27;100532.78;;;34.00;57.70
74230;BME280;62589;12.568;99.958;2022-09-20T08:32:54;100514.47;;;34.02;56.77
74230;BME280;62589;12.568;99.958;2022-09-20T08:35:21;100492.19;;;33.95;55.96
74230;BME280;62589;12.568;99.958;2022-09-20T08:37:47;100485.47;;;33.78;54.91
74230;BME280;62589;12.568;99.958;2022-09-20T08:40:15;100497.38;;;33.75;55.17
74230;BME280;62589;12.568;99.958;2022-09-20T08:42:41;100494.19;;;33.70;54.80
74230;BME280;62589;12.568;99.958;2022-09-20T08:45:16;100498.56;;;33.71;55.40
74230;BME280;62589;12.568;99.958;2022-09-20T08:47:50;100496.59;;;33.71;56.29
74230;BME280;62589;12.568;99.958;2022-09-20T08:50:20;100477.88;;;33.75;55.51
74230;BME280;62589;12.568;99.958;2022-09-20T08:52:48;100470.72;;;33.74;55.46
74230;BME280;62589;12.568;99.958;2022-09-20T08:55:25;100461.19;;;33.72;55.17
74230;BME280;62589;12.568;99.958;2022-09-20T08:57:58;100460.78;;;33.73;55.50
74230;BME280;62589;12.568;99.958;2022-09-20T09:00:31;100457.22;;;33.73;56.79
74230;BME280;62589;12.568;99.958;2022-09-20T09:03:03;100458.41;;;33.75;55.52
74230;BME280;62589;12.568;99.958;2022-09-20T09:05:36;100451.25;;;33.74;56.02
74230;BME280;62589;12.568;99.958;2022-09-20T09:08:09;100439.34;;;33.77;54.80
74230;BME280;62589;12.568;99.958;2022-09-20T09:14:01;100431.34;;;33.87;55.55
74230;BME280;62589;12.568;99.958;2022-09-20T09:16:48;100445.66;;;33.89;57.37
74230;BME280;62589;12.568;99.958;2022-09-20T09:19:30;100446.03;;;33.91;59.24
74230;BME280;62589;12.568;99.958;2022-09-20T09:22:01;100447.25;;;33.90;59.01
74230;BME280;62589;12.568;99.958;2022-09-20T09:24:28;100443.25;;;33.91;58.54
74230;BME280;62589;12.568;99.958;2022-09-20T09:27:16;100457.56;;;34.00;57.82
74230;BME280;62589;12.568;99.958;2022-09-20T09:29:52;100446.81;;;33.98;58.39
74230;BME280;62589;12.568;99.958;2022-09-20T09:32:22;100453.19;;;33.99;58.98
74230;BME280;62589;12.568;99.958;2022-09-20T09:34:49;100452.38;;;34.02;58.98
74230;BME280;62589;12.568;99.958;2022-09-20T09:37:29;100454.75;;;34.07;59.66
74230;BME280;62589;12.568;99.958;2022-09-20T09:40:14;100453.94;;;34.10;59.41
74230;BME280;62589;12.568;99.958;2022-09-20T09:42:49;100467.06;;;34.09;59.42
74230;BME280;62589;12.568;99.958;2022-09-20T09:45:26;100469.44;;;34.11;59.61
74230;BME280;62589;12.568;99.958;2022-09-20T09:47:54;100473.44;;;34.10;59.26
74230;BME280;62589;12.568;99.958;2022-09-20T09:50:27;100472.22;;;34.11;59.90
74230;BME280;62589;12.568;99.958;2022-09-20T09:53:17;100471.44;;;34.14;60.11
74230;BME280;62589;12.568;99.958;2022-09-20T09:56:05;100468.25;;;34.12;59.51
74230;BME280;62589;12.568;99.958;2022-09-20T09:58:54;100469.44;;;34.11;59.26
74230;BME280;62589;12.568;99.958;2022-09-20T10:01:51;100463.88;;;34.14;58.54
74230;BME280;62589;12.568;99.958;2022-09-20T10:04:46;100471.81;;;34.16;59.77
74230;BME280;62589;12.568;99.958;2022-09-20T10:07:40;100469.81;;;34.17;59.17
74230;BME280;62589;12.568;99.958;2022-09-20T10:13:43;100478.59;;;34.15;59.67
74230;BME280;62589;12.568;99.958;2022-09-20T10:19:03;100473.38;;;34.28;57.22
74230;BME280;62589;12.568;99.958;2022-09-20T10:30:28;100464.25;;;34.17;57.71
74230;BME280;62589;12.568;99.958;2022-09-20T10:33:28;100457.09;;;34.12;56.97
74230;BME280;62589;12.568;99.958;2022-09-20T10:38:52;100463.03;;;34.21;56.57
74230;BME280;62589;12.568;99.958;2022-09-20T10:41:53;100464.66;;;34.11;56.44
74230;BME280;62589;12.568;99.958;2022-09-20T10:44:55;100456.75;;;34.06;56.25
74230;BME280;62589;12.568;99.958;2022-09-20T10:47:37;100455.56;;;34.04;56.43
74230;BME280;62589;12.568;99.958;2022-09-20T10:50:40;100451.97;;;34.03;55.48
74230;BME280;62589;12.568;99.958;2022-09-20T10:55:59;100448.00;;;33.97;54.97
74230;BME280;62589;12.568;99.958;2022-09-20T10:58:39;100451.19;;;33.96;56.75
74230;BME280;62589;12.568;99.958;2022-09-20T11:07:18;100445.63;;;33.99;60.51
74230;BME280;62589;12.568;99.958;2022-09-20T11:09:49;100453.16;;;34.06;60.43
74230;BME280;62589;12.568;99.958;2022-09-20T11:12:36;100452.41;;;33.95;60.39
74230;BME280;62589;12.568;99.958;2022-09-20T11:21:18;100481.44;;;33.94;60.58
74230;BME280;62589;12.568;99.958;2022-09-20T11:27:06;100496.56;;;33.93;60.41
74230;BME280;62589;12.568;99.958;2022-09-20T11:35:45;100493.38;;;33.91;60.43
74230;BME280;62589;12.568;99.958;2022-09-20T11:38:25;100494.59;;;33.90;60.62
74230;BME280;62589;12.568;99.958;2022-09-20T11:41:15;100500.16;;;33.90;61.10
74230;BME280;62589;12.568;99.958;2022-09-20T11:43:45;100497.41;;;33.86;60.20
74230;BME280;62589;12.568;99.958;2022-09-20T11:46:20;100508.53;;;33.86;60.39
74230;BME280;62589;12.568;99.958;2022-09-20T11:49:20;100511.72;;;33.85;60.60
74230;BME280;62589;12.568;99.958;2022-09-20T11:57:36;100518.88;;;33.78;60.30
74230;BME280;62589;12.568;99.958;2022-09-20T12:00:05;100528.44;;;33.77;59.76
74230;BME280;62589;12.568;99.958;2022-09-20T12:02:50;100521.69;;;33.78;59.76
74230;BME280;62589;12.568;99.958;2022-09-20T12:05:31;100529.59;;;33.76;59.65
74230;BME280;62589;12.568;99.958;2022-09-20T12:08:02;100543.13;;;33.74;59.77
74230;BME280;62589;12.568;99.958;2022-09-20T12:10:33;100533.19;;;33.73;59.24
74230;BME280;62589;12.568;99.958;2022-09-20T12:13:04;100541.94;;;33.72;59.42
74230;BME280;62589;12.568;99.958;2022-09-20T12:15:37;100540.75;;;33.69;59.31
74230;BME280;62589;12.568;99.958;2022-09-20T12:18:32;100541.13;;;33.71;60.45
74230;BME280;62589;12.568;99.958;2022-09-20T12:21:10;100534.00;;;33.67;60.55
74230;BME280;62589;12.568;99.958;2022-09-20T12:23:58;100546.72;;;33.64;61.12
74230;BME280;62589;12.568;99.958;2022-09-20T12:26:37;100547.53;;;33.61;61.61
74230;BME280;62589;12.568;99.958;2022-09-20T12:34:59;100554.28;;;33.60;61.93
74230;BME280;62589;12.568;99.958;2022-09-20T12:37:27;100562.25;;;33.58;62.04
74230;BME280;62589;12.568;99.958;2022-09-20T12:39:55;100556.66;;;33.55;61.78
74230;BME280;62589;12.568;99.958;2022-09-20T12:42:30;100564.63;;;33.56;61.46
74230;BME280;62589;12.568;99.958;2022-09-20T12:45:03;100553.50;;;33.56;61.91
74230;BME280;62589;12.568;99.958;2022-09-20T12:47:35;100568.19;;;33.53;61.47
74230;BME280;62589;12.568;99.958;2022-09-20T12:50:14;100569.41;;;33.56;62.19
74230;BME280;62589;12.568;99.958;2022-09-20T12:52:54;100568.19;;;33.53;61.63
74230;BME280;62589;12.568;99.958;2022-09-20T12:58:47;100567.78;;;33.51;61.09
74230;BME280;62589;12.568;99.958;2022-09-20T13:01:35;100572.97;;;33.56;60.99
74230;BME280;62589;12.568;99.958;2022-09-20T13:09:50;100578.94;;;33.51;60.97
74230;BME280;62589;12.568;99.958;2022-09-20T13:12:17;100580.13;;;33.50;61.59
74230;BME280;62589;12.568;99.958;2022-09-20T13:14:44;100581.31;;;33.49;61.92
74230;BME280;62589;12.568;99.958;2022-09-20T13:17:20;100582.53;;;33.44;62.01
74230;BME280;62589;12.568;99.958;2022-09-20T13:19:50;100588.88;;;33.45;62.02
74230;BME280;62589;12.568;99.958;2022-09-20T13:22:41;100590.88;;;33.44;62.12
74230;BME280;62589;12.568;99.958;2022-09-20T13:25:13;100599.22;;;33.44;61.67
74230;BME280;62589;12.568;99.958;2022-09-20T13:28:15;100599.22;;;33.48;62.17
74230;BME280;62589;12.568;99.958;2022-09-20T13:30:46;100603.19;;;33.43;62.21
74230;BME280;62589;12.568;99.958;2022-09-20T13:33:25;100596.44;;;33.41;61.89
74230;BME280;62589;12.568;99.958;2022-09-20T13:35:53;100606.78;;;33.40;62.29
74230;BME280;62589;12.568;99.958;2022-09-20T13:38:24;100605.56;;;33.38;61.95
74230;BME280;62589;12.568;99.958;2022-09-20T13:41:02;100612.72;;;33.39;61.78
74230;BME280;62589;12.568;99.958;2022-09-20T13:43:38;100622.28;;;33.38;61.78
74230;BME280;62589;12.568;99.958;2022-09-20T13:49:15;100624.28;;;33.41;61.82
74230;BME280;62589;12.568;99.958;2022-09-20T13:51:46;100631.81;;;33.37;61.67
74230;BME280;62589;12.568;99.958;2022-09-20T13:54:31;100647.72;;;33.36;62.06
74230;BME280;62589;12.568;99.958;2022-09-20T13:57:01;100654.47;;;33.35;62.02
74230;BME280;62589;12.568;99.958;2022-09-20T13:59:41;100659.63;;;33.37;62.09
74230;BME280;62589;12.568;99.958;2022-09-20T14:02:30;100677.13;;;33.37;62.46
74230;BME280;62589;12.568;99.958;2022-09-20T14:05:00;100675.53;;;33.33;61.92
74230;BME280;62589;12.568;99.958;2022-09-20T14:07:28;100688.25;;;33.34;62.36
74230;BME280;62589;12.568;99.958;2022-09-20T14:09:56;100684.66;;;33.33;61.87
74230;BME280;62589;12.568;99.958;2022-09-20T14:12:24;100690.63;;;33.32;62.24
74230;BME280;62589;12.568;99.958;2022-09-20T14:14:52;100697.38;;;33.31;62.52
74230;BME280;62589;12.568;99.958;2022-09-20T14:17:22;100694.59;;;33.31;62.73
74230;BME280;62589;12.568;99.958;2022-09-20T14:19:52;100695.78;;;33.30;62.34
74230;BME280;62589;12.568;99.958;2022-09-20T14:22:26;100702.94;;;33.31;62.66
74230;BME280;62589;12.568;99.958;2022-09-20T14:25:21;100701.75;;;33.32;62.66
74230;BME280;62589;12.568;99.958;2022-09-20T14:28:05;100710.91;;;33.32;62.12
74230;BME280;62589;12.568;99.958;2022-09-20T14:30:35;100707.72;;;33.30;61.03
74230;BME280;62589;12.568;99.958;2022-09-20T14:33:04;100720.03;;;33.29;60.40
74230;BME280;62589;12.568;99.958;2022-09-20T14:35:32;100727.19;;;33.30;60.17
74230;BME280;62589;12.568;99.958;2022-09-20T14:38:08;100725.19;;;33.24;61.34
74230;BME280;62589;12.568;99.958;2022-09-20T14:40:48;100732.72;;;33.23;61.75
74230;BME280;62589;12.568;99.958;2022-09-20T14:43:34;100738.69;;;33.25;61.83
74230;BME280;62589;12.568;99.958;2022-09-20T14:46:14;100736.69;;;33.19;61.90
74230;BME280;62589;12.568;99.958;2022-09-20T14:48:43;100747.81;;;33.19;61.79
74230;BME280;62589;12.568;99.958;2022-09-20T14:51:29;100735.09;;;33.21;62.07
74230;BME280;62589;12.568;99.958;2022-09-20T14:54:28;100729.53;;;33.21;60.87
74230;BME280;62589;12.568;99.958;2022-09-20T14:56:57;100730.69;;;33.17;60.67
74230;BME280;62589;12.568;99.958;2022-09-20T14:59:34;100739.44;;;33.15;60.77
74230;BME280;62589;12.568;99.958;2022-09-20T15:02:10;100739.81;;;33.13;61.03
74230;BME280;62589;12.568;99.958;2022-09-20T15:04:39;100735.03;;;33.10;61.33
74230;BME280;62589;12.568;99.958;2022-09-20T15:07:09;100744.56;;;33.09;61.35
74230;BME280;62589;12.568;99.958;2022-09-20T15:09:38;100748.94;;;33.10;61.90
74230;BME280;62589;12.568;99.958;2022-09-20T15:12:17;100752.91;;;33.09;61.76
74230;BME280;62589;12.568;99.958;2022-09-20T15:14:45;100742.56;;;33.06;61.91
74230;BME280;62589;12.568;99.958;2022-09-20T15:17:17;100735.81;;;33.04;60.96
74230;BME280;62589;12.568;99.958;2022-09-20T15:19:44;100744.56;;;33.02;60.73
74230;BME280;62589;12.568;99.958;2022-09-20T15:22:13;100753.31;;;33.04;60.09
74230;BME280;62589;12.568;99.958;2022-09-20T15:24:40;100744.16;;;33.04;60.34
74230;BME280;62589;12.568;99.958;2022-09-20T15:27:08;100750.91;;;33.03;60.73
74230;BME280;62589;12.568;99.958;2022-09-20T15:29:34;100751.69;;;33.00;60.72
74230;BME280;62589;12.568;99.958;2022-09-20T15:32:01;100746.13;;;33.00;60.19
74230;BME280;62589;12.568;99.958;2022-09-20T15:34:31;100749.69;;;32.97;61.24
74230;BME280;62589;12.568;99.958;2022-09-20T15:36:57;100750.06;;;32.95;61.05
74230;BME280;62589;12.568;99.958;2022-09-20T15:39:24;100750.06;;;32.95;60.54
74230;BME280;62589;12.568;99.958;2022-09-20T15:41:52;100748.47;;;32.94;60.47
74230;BME280;62589;12.568;99.958;2022-09-20T15:44:20;100742.91;;;32.94;60.98
74230;BME280;62589;12.568;99.958;2022-09-20T15:46:49;100742.91;;;32.94;60.38
74230;BME280;62589;12.568;99.958;2022-09-20T15:49:16;100742.13;;;32.94;61.24
74230;BME280;62589;12.568;99.958;2022-09-20T15:51:43;100739.72;;;32.92;61.67
74230;BME280;62589;12.568;99.958;2022-09-20T15:54:13;100739.72;;;32.92;60.44
74230;BME280;62589;12.568;99.958;2022-09-20T15:56:40;100741.72;;;32.92;60.44
74230;BME280;62589;12.568;99.958;2022-09-20T15:59:08;100736.16;;;32.92;59.63
74230;BME280;62589;12.568;99.958;2022-09-20T16:01:37;100727.78;;;32.88;59.95
74230;BME280;62589;12.568;99.958;2022-09-20T16:04:13;100721.00;;;32.86;60.95
74230;BME280;62589;12.568;99.958;2022-09-20T16:06:42;100723.41;;;32.84;60.71
74230;BME280;62589;12.568;99.958;2022-09-20T16:09:08;100710.28;;;32.84;60.25
74230;BME280;62589;12.568;99.958;2022-09-20T16:11:36;100715.44;;;32.86;60.25
74230;BME280;62589;12.568;99.958;2022-09-20T16:14:03;100703.94;;;32.84;60.84
74230;BME280;62589;12.568;99.958;2022-09-20T16:16:31;100706.31;;;32.85;60.66
74230;BME280;62589;12.568;99.958;2022-09-20T16:18:58;100702.34;;;32.83;61.27
74230;BME280;62589;12.568;99.958;2022-09-20T16:21:37;100693.97;;;32.79;60.60
74230;BME280;62589;12.568;99.958;2022-09-20T16:24:08;100690.41;;;32.78;60.18
74230;BME280;62589;12.568;99.958;2022-09-20T16:26:34;100691.19;;;32.79;60.17
74230;BME280;62589;12.568;99.958;2022-09-20T16:29:01;100690.41;;;32.78;59.58
74230;BME280;62589;12.568;99.958;2022-09-20T16:31:48;100697.56;;;32.80;60.42
74230;BME280;62589;12.568;99.958;2022-09-20T16:34:26;100693.56;;;32.77;60.53
74230;BME280;62589;12.568;99.958;2022-09-20T16:36:58;100689.59;;;32.74;61.02
74230;BME280;62589;12.568;99.958;2022-09-20T16:39:26;100684.38;;;32.73;60.33
74230;BME280;62589;12.568;99.958;2022-09-20T16:41:57;100690.31;;;32.71;60.04
74230;BME280;62589;12.568;99.958;2022-09-20T16:44:31;100693.16;;;32.75;60.87
74230;BME280;62589;12.568;99.958;2022-09-20T16:46:58;100683.22;;;32.74;60.80
74230;BME280;62589;12.568;99.958;2022-09-20T16:49:26;100678.41;;;32.71;61.02
74230;BME280;62589;12.568;99.958;2022-09-20T16:51:52;100685.16;;;32.70;60.82
74230;BME280;62589;12.568;99.958;2022-09-20T16:54:19;100673.63;;;32.68;60.87
74230;BME280;62589;12.568;99.958;2022-09-20T16:56:47;100682.34;;;32.66;61.55
74230;BME280;62589;12.568;99.958;2022-09-20T16:59:16;100674.81;;;32.67;61.25
74230;BME280;62589;12.568;99.958;2022-09-20T17:01:43;100674.41;;;32.65;61.29
74230;BME280;62589;12.568;99.958;2022-09-20T17:04:10;100672.41;;;32.62;60.52
74230;BME280;62589;12.568;99.958;2022-09-20T17:06:39;100675.59;;;32.64;60.38